Time;durP1;ratioP1;P1;durP2;ratioP2;P2;SDS_P1;SDS_P2;PMS_P1;PMS_P2;Temp;Humidity;BMP_temperature;BMP_pressure;BME280_temperature;BME280_humidity;BME280_pressure;Samples;Min_cycle;Max_cycle;Signal;HPM_P1;HPM_P2
2021/06/20 00:01:41;;;;;;;26.98;16.73;;;15.90;99.90;;;;;;5072990;28;20395;-79
2021/06/20 00:04:07;;;;;;;;;;;15.90;99.90;;;;;;5072508;28;20117;-77
2021/06/20 00:06:36;;;;;;;26.35;16.30;;;15.80;99.90;;;;;;5072978;28;19920;-78
2021/06/20 00:09:12;;;;;;;32.78;17.20;;;15.80;99.90;;;;;;5072174;28;20086;-75
2021/06/20 00:11:41;;;;;;;28.15;16.65;;;15.80;99.90;;;;;;5072055;28;20036;-78
2021/06/20 00:14:07;;;;;;;27.90;17.52;;;15.80;99.90;;;;;;5071380;28;20040;-77
2021/06/20 00:16:34;;;;;;;30.15;17.73;;;15.80;99.90;;;;;;5072897;28;20041;-75
2021/06/20 00:19:01;;;;;;;29.10;18.02;;;15.90;99.90;;;;;;5070683;28;20032;-80
2021/06/20 00:21:27;;;;;;;30.08;17.55;;;15.90;99.90;;;;;;5045346;28;20084;-76
2021/06/20 00:23:53;;;;;;;22.52;15.63;;;15.90;99.90;;;;;;5071697;28;20516;-77
2021/06/20 00:26:19;;;;;;;;;;;15.90;99.90;;;;;;5058748;28;20469;-75
2021/06/20 00:28:45;;;;;;;29.23;17.23;;;15.90;99.90;;;;;;5071843;28;19920;-78
2021/06/20 00:31:12;;;;;;;31.85;18.35;;;15.90;99.90;;;;;;5071400;28;20504;-79
2021/06/20 00:33:40;;;;;;;36.83;19.95;;;15.90;99.90;;;;;;5063199;28;20062;-76
2021/06/20 00:36:06;;;;;;;43.42;21.95;;;16.00;99.90;;;;;;5071967;28;20047;-77
2021/06/20 00:38:32;;;;;;;53.30;25.92;;;16.00;99.90;;;;;;5072060;28;20067;-77
2021/06/20 00:40:58;;;;;;;54.42;26.17;;;15.90;99.90;;;;;;5069206;28;20464;-76
2021/06/20 00:43:23;;;;;;;;;;;15.80;99.90;;;;;;5071000;28;20048;-77
2021/06/20 00:45:50;;;;;;;56.58;26.63;;;15.60;99.90;;;;;;5070684;28;19920;-76
2021/06/20 00:48:15;;;;;;;;;;;15.50;99.90;;;;;;5070509;28;20098;-76
2021/06/20 00:50:42;;;;;;;44.78;22.35;;;15.50;99.90;;;;;;5057855;28;19920;-74
2021/06/20 00:53:09;;;;;;;47.67;22.65;;;15.50;99.90;;;;;;5070381;28;20097;-74
2021/06/20 00:55:37;;;;;;;46.08;23.15;;;15.40;99.90;;;;;;5070364;28;20040;-75
2021/06/20 00:58:04;;;;;;;46.30;24.95;;;15.40;99.90;;;;;;5050077;28;20037;-75
2021/06/20 01:00:31;;;;;;;49.55;24.15;;;15.30;99.90;;;;;;5066796;28;20037;-75
2021/06/20 01:03:00;;;;;;;57.75;27.77;;;15.40;99.90;;;;;;5070849;28;20127;-76
2021/06/20 01:05:26;;;;;;;;;;;15.30;99.90;;;;;;5071646;28;20040;-75
2021/06/20 01:07:53;;;;;;;56.63;26.63;;;15.30;99.90;;;;;;5071750;28;19920;-74
2021/06/20 01:10:25;;;;;;;55.55;27.58;;;15.30;99.90;;;;;;5054557;28;20490;-74
2021/06/20 01:12:51;;;;;;;61.65;28.02;;;15.30;99.90;;;;;;5071087;28;20032;-74
2021/06/20 01:15:18;;;;;;;51.10;25.75;;;15.30;99.90;;;;;;5070219;28;20482;-74
2021/06/20 01:17:44;;;;;;;47.22;23.58;;;15.30;99.90;;;;;;5070934;28;20442;-74
2021/06/20 01:20:13;;;;;;;46.13;22.98;;;15.30;99.90;;;;;;5068789;28;20055;-75
2021/06/20 01:22:42;;;;;;;47.85;22.45;;;15.30;99.90;;;;;;5071149;28;20405;-75
2021/06/20 01:25:14;;;;;;;46.90;23.30;;;15.30;99.90;;;;;;5067955;28;20040;-75
2021/06/20 01:27:53;;;;;;;40.63;20.95;;;15.30;99.90;;;;;;5063927;28;20045;-74
2021/06/20 01:30:23;;;;;;;40.88;22.27;;;15.30;99.90;;;;;;5068891;28;20408;-73
2021/06/20 01:32:50;;;;;;;35.83;20.73;;;15.20;99.90;;;;;;5063017;28;20045;-73
2021/06/20 01:35:16;;;;;;;39.72;20.02;;;15.20;99.90;;;;;;5049000;28;20128;-73
2021/06/20 01:37:43;;;;;;;42.03;21.90;;;15.20;99.90;;;;;;5062792;28;20037;-74
2021/06/20 01:40:11;;;;;;;39.58;20.17;;;15.20;99.90;;;;;;5051028;28;20040;-74
2021/06/20 01:42:41;;;;;;;41.47;22.35;;;15.20;99.90;;;;;;5084002;28;20052;-74
2021/06/20 01:45:08;;;;;;;42.15;20.90;;;15.20;99.90;;;;;;5090509;28;20401;-73
2021/06/20 01:47:35;;;;;;;38.95;20.45;;;15.20;99.90;;;;;;5090585;28;20036;-74
2021/06/20 01:50:03;;;;;;;36.65;20.52;;;15.20;99.90;;;;;;5072120;28;20401;-74
2021/06/20 01:52:29;;;;;;;40.85;19.77;;;15.20;99.90;;;;;;5091064;28;20048;-75
2021/06/20 01:54:56;;;;;;;31.33;17.52;;;15.20;99.90;;;;;;5090206;28;20040;-74
2021/06/20 01:57:32;;;;;;;36.63;18.50;;;15.20;99.90;;;;;;5089974;28;20044;-74
2021/06/20 01:59:59;;;;;;;28.42;15.20;;;15.20;99.90;;;;;;5090914;28;20036;-73
2021/06/20 02:02:27;;;;;;;28.30;15.90;;;15.20;99.90;;;;;;5090337;28;20040;-74
2021/06/20 02:04:55;;;;;;;28.45;15.63;;;15.20;99.90;;;;;;5072731;28;20055;-74
2021/06/20 02:07:22;;;;;;;30.95;16.20;;;15.20;99.90;;;;;;5089895;28;20047;-74
2021/06/20 02:09:49;;;;;;;28.52;16.60;;;15.20;99.90;;;;;;5090376;28;20044;-75
2021/06/20 02:12:17;;;;;;;34.22;17.02;;;15.20;99.90;;;;;;5089766;28;20071;-74
2021/06/20 02:14:43;;;;;;;32.25;17.30;;;15.20;99.90;;;;;;5091044;28;20043;-74
2021/06/20 02:17:21;;;;;;;30.08;17.63;;;15.30;99.90;;;;;;5039160;28;20464;-74
2021/06/20 02:19:47;;;;;;;31.73;17.50;;;15.30;99.90;;;;;;5082176;28;20054;-75
2021/06/20 02:22:14;;;;;;;33.75;17.65;;;15.30;99.90;;;;;;5089991;28;20095;-74
2021/06/20 02:24:39;;;;;;;;;;;15.30;99.90;;;;;;5091427;28;20040;-74
2021/06/20 02:27:09;;;;;;;37.83;18.73;;;15.30;99.90;;;;;;5075042;28;20425;-74
2021/06/20 02:29:35;;;;;;;34.00;18.17;;;15.30;99.90;;;;;;5090761;28;20095;-74
2021/06/20 02:32:01;;;;;;;;;;;15.40;99.90;;;;;;5089694;28;20040;-74
2021/06/20 02:34:27;;;;;;;37.17;19.67;;;15.40;99.90;;;;;;5082951;28;19935;-76
2021/06/20 02:36:53;;;;;;;49.28;23.33;;;15.40;99.90;;;;;;5052123;28;20405;-75
2021/06/20 02:39:18;;;;;;;;;;;15.50;99.90;;;;;;5065326;28;20048;-75
2021/06/20 02:41:46;;;;;;;43.10;21.95;;;15.60;99.90;;;;;;5089915;28;19969;-75
2021/06/20 02:44:12;;;;;;;47.25;22.90;;;15.60;99.90;;;;;;5094393;28;20115;-75
2021/06/20 02:46:38;;;;;;;51.95;24.85;;;15.60;99.90;;;;;;5056319;28;20136;-76
2021/06/20 02:49:03;;;;;;;41.97;22.73;;;15.70;99.90;;;;;;5086228;28;20042;-75
2021/06/20 02:51:29;;;;;;;45.63;21.77;;;16.10;99.90;;;;;;5093614;28;20086;-75
2021/06/20 02:53:56;;;;;;;40.63;22.17;;;15.80;99.90;;;;;;5076249;28;20135;-74
2021/06/20 02:56:21;;;;;;;40.17;22.38;;;15.80;99.90;;;;;;5054747;28;20450;-77
2021/06/20 02:58:47;;;;;;;40.40;22.08;;;15.90;99.90;;;;;;5068446;28;20046;-77
2021/06/20 03:01:13;;;;;;;46.78;22.50;;;15.90;99.90;;;;;;5039560;28;20109;-77
2021/06/20 03:03:38;;;;;;;;;;;16.00;99.90;;;;;;5056177;28;20063;-75
2021/06/20 03:06:06;;;;;;;47.95;23.67;;;15.90;99.90;;;;;;5108996;28;20294;-74
2021/06/20 03:08:31;;;;;;;44.15;24.02;;;16.00;99.90;;;;;;5094383;28;20094;-77
2021/06/20 03:10:57;;;;;;;48.25;23.08;;;16.00;99.90;;;;;;5061516;28;20032;-77
2021/06/20 03:13:23;;;;;;;;;;;16.00;99.90;;;;;;5093833;28;20489;-75
2021/06/20 03:15:49;;;;;;;48.38;24.60;;;16.00;99.90;;;;;;5056557;28;19923;-75
2021/06/20 03:18:15;;;;;;;50.95;26.63;;;16.10;99.90;;;;;;5055177;28;20047;-75
2021/06/20 03:20:41;;;;;;;49.45;26.10;;;16.10;99.90;;;;;;5074375;28;20103;-77
2021/06/20 03:23:11;;;;;;;58.45;26.88;;;16.10;99.90;;;;;;5093570;28;20050;-77
2021/06/20 03:25:41;;;;;;;47.45;26.08;;;16.20;99.90;;;;;;5085168;28;20393;-76
2021/06/20 03:28:07;;;;;;;48.75;26.17;;;16.20;99.90;;;;;;5086825;28;20382;-77
2021/06/20 03:30:34;;;;;;;55.30;27.27;;;16.20;99.90;;;;;;5092969;28;20043;-77
2021/06/20 03:33:00;;;;;;;58.28;29.30;;;16.20;99.90;;;;;;5072846;28;20040;-77
2021/06/20 03:35:27;;;;;;;58.15;29.88;;;16.20;99.90;;;;;;5074943;28;20047;-76
2021/06/20 03:37:53;;;;;;;60.65;32.20;;;16.20;99.90;;;;;;5093840;28;20043;-77
2021/06/20 03:40:19;;;;;;;;;;;16.20;99.90;;;;;;5092347;28;20036;-78
2021/06/20 03:42:45;;;;;;;71.18;33.88;;;16.30;99.90;;;;;;5093304;28;20418;-76
2021/06/20 03:45:11;;;;;;;;;;;16.20;99.90;;;;;;5094355;28;20115;-76
2021/06/20 03:47:38;;;;;;;74.53;34.38;;;16.30;99.90;;;;;;5061595;28;20424;-79
2021/06/20 03:50:07;;;;;;;66.47;32.97;;;16.30;99.90;;;;;;5075116;28;20048;-76
2021/06/20 03:52:32;;;;;;;70.05;34.75;;;16.30;99.90;;;;;;5074907;28;20046;-77
2021/06/20 03:54:58;;;;;;;72.68;36.88;;;16.40;99.90;;;;;;5065743;28;20187;-80
2021/06/20 03:57:24;;;;;;;;;;;16.40;99.90;;;;;;5087919;28;20036;-75
2021/06/20 03:59:51;;;;;;;72.00;34.10;;;16.40;99.90;;;;;;5092636;28;20277;-75
2021/06/20 04:02:18;;;;;;;69.60;35.13;;;16.40;99.90;;;;;;5092517;28;20598;-78
2021/06/20 04:04:44;;;;;;;68.13;35.03;;;16.50;99.90;;;;;;5093113;28;20040;-74
2021/06/20 04:07:12;;;;;;;67.78;34.65;;;16.50;99.90;;;;;;5074582;28;20039;-75
2021/06/20 04:09:39;;;;;;;73.80;37.28;;;16.50;99.90;;;;;;5075519;28;20392;-75
2021/06/20 04:12:06;;;;;;;80.80;37.58;;;16.50;99.90;;;;;;5092557;28;20036;-78
2021/06/20 04:14:33;;;;;;;76.00;36.53;;;16.60;99.90;;;;;;5065519;28;20043;-77
2021/06/20 04:16:59;;;;;;;70.22;35.03;;;16.60;99.90;;;;;;5088562;28;20068;-77
2021/06/20 04:19:24;;;;;;;70.88;36.83;;;16.70;99.90;;;;;;5073453;28;20507;-78
2021/06/20 04:21:50;;;;;;;;;;;16.70;99.90;;;;;;5065831;28;20373;-77
2021/06/20 04:24:16;;;;;;;66.60;34.90;;;16.70;99.90;;;;;;5092565;28;19916;-75
2021/06/20 04:26:42;;;;;;;;;;;16.70;99.90;;;;;;5060986;28;20036;-78
2021/06/20 04:29:08;;;;;;;68.45;35.95;;;16.70;99.90;;;;;;5092824;28;20416;-77
2021/06/20 04:31:35;;;;;;;73.35;37.05;;;16.80;99.90;;;;;;5093048;28;20054;-76
2021/06/20 04:34:01;;;;;;;77.47;37.50;;;16.80;99.90;;;;;;5084779;28;20090;-75
2021/06/20 04:36:27;;;;;;;77.18;38.78;;;16.80;99.90;;;;;;5092394;28;20121;-76
2021/06/20 04:38:53;;;;;;;;;;;16.90;99.90;;;;;;5095424;28;20127;-78
2021/06/20 04:41:21;;;;;;;69.68;35.08;;;16.90;99.90;;;;;;5091426;28;19954;-77
2021/06/20 04:46:29;;;;;;;65.55;34.58;;;16.90;99.90;;;;;;5056964;28;20552;-75
2021/06/20 04:49:10;;;;;;;70.40;36.78;;;17.00;99.90;;;;;;5092547;28;20040;-77
2021/06/20 04:51:40;;;;;;;71.03;37.35;;;17.00;99.90;;;;;;5060571;28;20058;-78
2021/06/20 04:54:07;;;;;;;75.22;37.92;;;17.10;99.90;;;;;;5091984;28;20036;-75
2021/06/20 04:56:33;;;;;;;70.85;36.65;;;17.10;99.90;;;;;;5072787;28;20044;-77
2021/06/20 04:58:58;;;;;;;;;;;17.10;99.90;;;;;;5089793;28;20078;-77
2021/06/20 05:01:25;;;;;;;66.95;35.00;;;17.20;99.90;;;;;;5091562;28;19916;-78
2021/06/20 05:03:52;;;;;;;64.35;36.80;;;17.30;99.90;;;;;;5091752;28;20031;-79
2021/06/20 05:06:18;;;;;;;62.35;35.42;;;17.30;99.90;;;;;;5065787;28;20029;-78
2021/06/20 05:08:44;;;;;;;;;;;17.30;99.90;;;;;;5085662;28;20092;-78
2021/06/20 05:11:11;;;;;;;68.20;35.25;;;17.30;99.90;;;;;;5090958;28;19954;-76
2021/06/20 05:13:37;;;;;;;61.17;35.33;;;17.30;99.90;;;;;;5091869;28;20503;-78
2021/06/20 05:16:03;;;;;;;;;;;17.30;99.90;;;;;;5067291;28;20044;-76
2021/06/20 05:18:29;;;;;;;65.78;34.75;;;17.30;99.90;;;;;;5084624;28;19916;-76
2021/06/20 05:20:55;;;;;;;57.90;34.13;;;17.30;99.90;;;;;;5091690;28;20129;-75
2021/06/20 05:23:21;;;;;;;;;;;17.30;99.90;;;;;;5059827;28;20044;-77
2021/06/20 05:25:48;;;;;;;61.85;35.80;;;17.30;99.90;;;;;;5063970;28;20361;-77
2021/06/20 05:28:14;;;;;;;56.70;35.95;;;17.30;99.90;;;;;;5068094;28;20047;-78
2021/06/20 05:30:42;;;;;;;;;;;17.30;99.90;;;;;;5074175;28;20036;-77
2021/06/20 05:33:08;;;;;;;59.70;36.20;;;17.30;99.90;;;;;;5064565;28;20327;-77
2021/06/20 05:35:33;;;;;;;;;;;17.30;99.90;;;;;;5073158;28;20059;-77
2021/06/20 05:37:59;;;;;;;64.60;37.33;;;17.40;99.90;;;;;;5091260;28;19923;-74
2021/06/20 05:40:27;;;;;;;;;;;17.40;99.90;;;;;;5039782;28;20040;-76
2021/06/20 05:42:52;;;;;;;60.40;35.42;;;17.40;99.90;;;;;;5063084;28;19923;-73
2021/06/20 05:45:18;;;;;;;;;;;17.50;99.90;;;;;;5094765;28;20036;-76
2021/06/20 05:47:44;;;;;;;59.65;35.88;;;17.60;99.90;;;;;;5092090;28;19916;-75
2021/06/20 05:50:10;;;;;;;;;;;17.60;99.90;;;;;;5091468;28;20040;-76
2021/06/20 05:52:36;;;;;;;59.50;36.08;;;17.80;99.90;;;;;;5058692;28;19927;-78
2021/06/20 05:55:02;;;;;;;;;;;17.90;99.90;;;;;;5073332;28;20036;-77
2021/06/20 05:57:27;;;;;;;63.08;36.15;;;18.00;99.90;;;;;;5091269;28;19955;-77
2021/06/20 05:59:53;;;;;;;;;;;18.10;99.90;;;;;;5066421;28;20041;-78
2021/06/20 06:02:19;;;;;;;50.28;31.42;;;18.20;99.90;;;;;;5085891;28;19916;-78
2021/06/20 06:04:44;;;;;;;;;;;18.20;99.90;;;;;;5073874;28;20048;-77
2021/06/20 06:07:10;;;;;;;51.22;33.47;;;18.20;99.90;;;;;;5091115;28;20057;-76
2021/06/20 06:09:36;;;;;;;;;;;18.30;99.90;;;;;;5090936;28;20043;-75
2021/06/20 06:12:06;;;;;;;54.92;33.25;;;18.30;99.90;;;;;;5059335;28;19916;-76
2021/06/20 06:14:32;;;;;;;50.70;33.97;;;18.30;99.90;;;;;;5064890;28;20082;-78
2021/06/20 06:16:58;;;;;;;;;;;18.50;99.90;;;;;;5042929;28;20405;-76
2021/06/20 06:19:24;;;;;;;48.65;32.80;;;18.50;99.90;;;;;;5095349;28;19916;-78
2021/06/20 06:21:50;;;;;;;;;;;18.70;99.90;;;;;;5078025;28;20496;-80
2021/06/20 06:24:16;;;;;;;50.05;31.23;;;18.70;99.90;;;;;;5077425;28;20024;-76
2021/06/20 06:26:41;;;;;;;;;;;18.80;99.90;;;;;;5081121;28;20048;-77
2021/06/20 06:29:07;;;;;;;44.78;30.77;;;18.60;99.90;;;;;;5094867;28;20281;-79
2021/06/20 06:31:35;;;;;;;;;;;18.80;99.90;;;;;;5095325;28;20405;-77
2021/06/20 06:34:02;;;;;;;43.20;29.63;;;18.90;99.90;;;;;;5087040;28;19939;-79
2021/06/20 06:36:27;;;;;;;47.30;29.67;;;18.90;99.90;;;;;;5076932;28;20135;-81
2021/06/20 06:38:54;;;;;;;37.15;27.38;;;19.00;99.90;;;;;;5095134;28;20040;-76
2021/06/20 06:41:19;;;;;;;;;;;19.10;99.90;;;;;;5063490;28;20040;-78
2021/06/20 06:43:45;;;;;;;35.22;23.33;;;19.10;99.90;;;;;;5096030;28;19915;-77
2021/06/20 06:46:11;;;;;;;;;;;19.10;99.90;;;;;;5095607;28;20067;-78
2021/06/20 06:48:37;;;;;;;33.13;21.23;;;19.10;99.90;;;;;;5066794;28;20353;-79
2021/06/20 06:51:03;;;;;;;;;;;19.00;99.90;;;;;;5072600;28;20036;-75
2021/06/20 06:53:29;;;;;;;26.38;18.17;;;19.00;99.90;;;;;;5067088;28;19923;-78
2021/06/20 06:55:55;;;;;;;;;;;18.80;99.90;;;;;;5058673;28;20036;-80
2021/06/20 06:58:21;;;;;;;23.77;15.13;;;18.70;99.90;;;;;;5094405;28;19919;-76
2021/06/20 07:00:47;;;;;;;;;;;18.70;99.90;;;;;;5047033;28;20036;-74
2021/06/20 07:03:13;;;;;;;26.42;15.38;;;18.70;99.90;;;;;;5094806;28;19916;-79
2021/06/20 07:05:39;;;;;;;18.40;12.25;;;18.70;99.90;;;;;;5075381;28;20044;-79
2021/06/20 07:08:06;;;;;;;;;;;19.10;99.90;;;;;;5095161;28;20412;-79
2021/06/20 07:10:32;;;;;;;14.13;10.07;;;19.40;99.90;;;;;;5093098;28;19916;-80
2021/06/20 07:12:58;;;;;;;;;;;19.50;99.90;;;;;;5068455;28;20560;-77
2021/06/20 07:15:25;;;;;;;12.80;8.43;;;19.50;99.90;;;;;;5090288;28;19919;-76
2021/06/20 07:17:51;;;;;;;8.88;6.45;;;19.40;99.90;;;;;;5044050;28;20063;-77
2021/06/20 07:20:17;;;;;;;8.38;5.05;;;19.20;99.90;;;;;;5068555;28;20442;-80
2021/06/20 07:22:45;;;;;;;7.55;4.80;;;19.00;99.90;;;;;;5067284;28;20044;-76
2021/06/20 07:25:14;;;;;;;7.00;4.80;;;18.90;99.90;;;;;;5086289;28;20028;-80
2021/06/20 07:27:40;;;;;;;6.25;4.32;;;18.90;99.90;;;;;;5084882;28;20481;-79
2021/06/20 07:30:07;;;;;;;;;;;18.90;99.90;;;;;;5095568;28;20074;-80
2021/06/20 07:32:33;;;;;;;7.45;4.15;;;19.00;99.90;;;;;;5088938;28;19927;-80
2021/06/20 07:34:59;;;;;;;;;;;19.10;99.90;;;;;;5056620;28;20041;-78
2021/06/20 07:37:25;;;;;;;7.55;4.22;;;19.10;99.90;;;;;;5084472;28;19916;-76
2021/06/20 07:39:51;;;;;;;5.88;4.18;;;19.20;99.90;;;;;;5093867;28;20047;-76
2021/06/20 07:42:18;;;;;;;5.30;3.40;;;19.20;99.90;;;;;;5093914;28;20044;-75
2021/06/20 07:44:43;;;;;;;;;;;19.20;99.90;;;;;;5062180;28;20101;-76
2021/06/20 07:47:09;;;;;;;7.03;3.30;;;19.30;99.90;;;;;;5093410;28;19916;-77
2021/06/20 07:49:35;;;;;;;;;;;19.30;99.90;;;;;;5093400;28;20043;-75
2021/06/20 07:52:00;;;;;;;4.55;2.60;;;19.20;99.90;;;;;;5093140;28;19930;-78
2021/06/20 07:54:26;;;;;;;;;;;19.40;99.90;;;;;;5093940;28;20123;-78
2021/06/20 07:56:52;;;;;;;6.28;2.63;;;19.40;99.90;;;;;;5075155;28;20028;-76
2021/06/20 07:59:18;;;;;;;;;;;19.50;99.90;;;;;;5094854;28;20025;-77
2021/06/20 08:01:44;;;;;;;5.07;2.40;;;19.60;99.90;;;;;;5094025;28;19923;-79
2021/06/20 08:04:10;;;;;;;;;;;19.70;99.90;;;;;;5094250;28;20505;-78
2021/06/20 08:06:35;;;;;;;4.88;2.40;;;19.70;99.90;;;;;;5093710;28;19916;-76
2021/06/20 08:09:01;;;;;;;;;;;19.80;99.90;;;;;;5075896;28;20096;-74
2021/06/20 08:11:28;;;;;;;4.03;2.00;;;19.90;99.90;;;;;;5091795;28;19927;-77
2021/06/20 08:13:56;;;;;;;5.93;2.38;;;20.00;99.90;;;;;;5062050;28;20041;-78
2021/06/20 08:16:22;;;;;;;5.53;2.75;;;19.90;99.90;;;;;;5093426;28;20039;-76
2021/06/20 08:18:50;;;;;;;4.75;2.60;;;20.00;99.90;;;;;;5093771;28;20035;-79
2021/06/20 08:21:16;;;;;;;5.25;2.60;;;20.20;99.90;;;;;;5095299;28;20047;-78
2021/06/20 08:23:41;;;;;;;;;;;20.30;99.90;;;;;;5096935;28;20124;-77
2021/06/20 08:26:07;;;;;;;5.18;2.50;;;20.40;99.90;;;;;;5062362;28;20361;-76
2021/06/20 08:28:33;;;;;;;;;;;20.40;99.90;;;;;;5091324;28;20068;-76
2021/06/20 08:31:00;;;;;;;3.88;2.47;;;20.30;99.90;;;;;;5093189;28;19916;-79
2021/06/20 08:33:26;;;;;;;4.47;2.40;;;20.00;99.90;;;;;;5084646;28;20036;-75
2021/06/20 08:35:52;;;;;;;5.00;2.17;;;19.90;99.90;;;;;;5076277;28;20089;-78
2021/06/20 08:38:18;;;;;;;;;;;19.90;99.90;;;;;;5098570;28;20040;-80
2021/06/20 08:40:44;;;;;;;6.15;2.92;;;19.90;99.90;;;;;;5061158;28;19970;-81
2021/06/20 08:43:10;;;;;;;;;;;19.90;99.90;;;;;;5091513;28;20436;-77
2021/06/20 08:45:37;;;;;;;4.47;2.95;;;20.20;99.90;;;;;;5092359;28;19973;-77
2021/06/20 08:48:04;;;;;;;3.95;2.72;;;20.50;99.90;;;;;;5062082;28;20044;-78
2021/06/20 08:50:30;;;;;;;4.90;2.53;;;20.50;99.90;;;;;;5091463;28;20433;-80
2021/06/20 08:52:56;;;;;;;5.03;2.40;;;20.60;99.90;;;;;;5057604;28;20063;-78
2021/06/20 08:55:23;;;;;;;4.63;2.60;;;20.70;99.90;;;;;;5091276;28;20115;-80
2021/06/20 08:57:52;;;;;;;4.38;2.70;;;20.80;99.90;;;;;;5073867;28;20036;-78
2021/06/20 09:00:19;;;;;;;4.07;2.63;;;20.80;99.90;;;;;;5091062;28;20095;-77
2021/06/20 09:02:57;;;;;;;3.72;2.50;;;20.70;99.90;;;;;;5092289;28;20057;-79
2021/06/20 09:05:22;;;;;;;4.63;2.25;;;20.60;99.90;;;;;;5061207;28;20067;-77
2021/06/20 09:07:48;;;;;;;4.50;2.08;;;20.70;99.90;;;;;;5091861;28;20064;-79
2021/06/20 09:10:14;;;;;;;;;;;20.50;99.90;;;;;;5092191;28;20105;-76
2021/06/20 09:12:47;;;;;;;3.60;2.28;;;20.50;99.90;;;;;;5091444;28;19915;-77
2021/06/20 09:15:15;;;;;;;3.47;1.88;;;20.50;99.90;;;;;;5092012;28;20036;-78
2021/06/20 09:17:51;;;;;;;4.28;2.20;;;20.50;99.90;;;;;;5091671;28;20051;-77
2021/06/20 09:20:16;;;;;;;3.58;2.15;;;20.50;99.90;;;;;;5091356;28;20036;-77
2021/06/20 09:22:42;;;;;;;3.67;2.00;;;20.60;99.90;;;;;;5091362;28;20473;-77
2021/06/20 09:25:14;;;;;;;5.70;1.95;;;20.50;99.90;;;;;;5087362;28;20032;-77
2021/06/20 09:27:53;;;;;;;3.65;2.33;;;20.50;99.90;;;;;;5081427;28;20047;-76
2021/06/20 09:30:21;;;;;;;3.28;2.08;;;20.60;99.90;;;;;;5073762;28;20036;-78
2021/06/20 09:32:59;;;;;;;3.28;1.98;;;20.60;99.90;;;;;;5083285;28;20051;-77
2021/06/20 09:35:29;;;;;;;3.47;2.00;;;20.60;99.90;;;;;;5078653;28;20032;-75
2021/06/20 09:37:56;;;;;;;2.88;2.00;;;20.70;99.90;;;;;;5091566;28;20084;-78
2021/06/20 09:40:25;;;;;;;3.97;1.90;;;20.70;99.90;;;;;;5091611;28;20101;-79
2021/06/20 09:42:52;;;;;;;3.95;2.00;;;20.80;99.90;;;;;;5090960;28;20048;-77
2021/06/20 09:45:32;;;;;;;5.25;1.85;;;21.00;99.90;;;;;;5091771;28;20370;-76
2021/06/20 09:47:59;;;;;;;3.22;1.90;;;21.10;99.90;;;;;;5092130;28;20457;-77
2021/06/20 09:50:38;;;;;;;3.35;1.80;;;21.10;99.90;;;;;;5073939;28;20044;-79
2021/06/20 09:53:05;;;;;;;4.35;2.00;;;21.00;99.90;;;;;;5091874;28;20051;-80
2021/06/20 09:55:31;;;;;;;4.18;2.00;;;21.00;99.90;;;;;;5090073;28;20043;-77
2021/06/20 09:58:00;;;;;;;3.00;1.80;;;21.10;99.90;;;;;;5092448;28;20080;-78
2021/06/20 10:00:36;;;;;;;3.22;2.10;;;21.10;99.90;;;;;;5091966;28;20131;-78
2021/06/20 10:03:02;;;;;;;3.53;1.92;;;21.10;99.90;;;;;;5071063;28;20129;-80
2021/06/20 10:05:27;;;;;;;3.50;1.83;;;21.30;99.90;;;;;;5085082;28;20063;-76
2021/06/20 10:07:53;;;;;;;;;;;21.40;99.90;;;;;;5067496;28;20048;-79
2021/06/20 10:10:19;;;;;;;2.70;1.63;;;21.60;99.90;;;;;;5083542;28;19919;-80
2021/06/20 10:12:45;;;;;;;3.95;1.75;;;21.80;99.90;;;;;;5091351;28;20055;-79
2021/06/20 10:15:13;;;;;;;4.72;1.70;;;21.80;99.90;;;;;;5091906;28;20469;-79
2021/06/20 10:17:44;;;;;;;2.92;1.40;;;21.90;99.90;;;;;;5078064;28;20040;-76
2021/06/20 10:20:13;;;;;;;3.17;1.58;;;22.00;99.90;;;;;;5096461;28;20043;-77
2021/06/20 10:22:47;;;;;;;4.10;1.73;;;22.10;99.90;;;;;;5091836;28;20043;-77
2021/06/20 10:25:29;;;;;;;2.72;1.48;;;22.10;99.90;;;;;;5087375;28;20236;-79
2021/06/20 10:28:12;;;;;;;3.60;1.40;;;22.10;99.90;;;;;;5084295;28;20532;-77
2021/06/20 10:30:38;;;;;;;2.80;1.38;;;21.80;99.90;;;;;;5078592;28;20055;-76
2021/06/20 10:33:14;;;;;;;3.15;1.60;;;21.70;99.90;;;;;;5083428;28;20044;-78
2021/06/20 10:35:41;;;;;;;5.00;1.43;;;21.50;99.90;;;;;;5090357;28;20040;-77
2021/06/20 10:38:07;;;;;;;2.38;1.55;;;21.40;99.90;;;;;;5090771;28;20520;-79
2021/06/20 10:40:43;;;;;;;2.83;1.30;;;21.30;99.90;;;;;;5089941;28;20046;-75
2021/06/20 10:43:20;;;;;;;2.65;1.40;;;21.20;99.90;;;;;;5091270;28;20056;-80
2021/06/20 10:45:47;;;;;;;3.30;1.50;;;21.20;99.90;;;;;;5090660;28;20082;-80
2021/06/20 10:48:22;;;;;;;3.58;1.20;;;21.30;99.90;;;;;;5072563;28;20044;-77
2021/06/20 10:50:53;;;;;;;3.00;1.15;;;21.60;99.90;;;;;;5090275;28;20088;-81
2021/06/20 10:53:21;;;;;;;3.25;1.27;;;21.80;99.90;;;;;;5090830;28;20043;-78
2021/06/20 10:55:52;;;;;;;2.28;1.20;;;21.90;99.90;;;;;;5089321;28;20067;-78
2021/06/20 10:58:24;;;;;;;4.47;1.30;;;22.00;99.90;;;;;;5091078;28;20093;-77
2021/06/20 11:00:53;;;;;;;2.10;1.08;;;22.00;99.90;;;;;;5058585;28;20135;-79
2021/06/20 11:03:29;;;;;;;3.10;1.08;;;22.00;99.90;;;;;;5075334;28;20097;-76
2021/06/20 11:06:09;;;;;;;2.55;1.23;;;22.00;99.90;;;;;;5059122;28;20037;-77
2021/06/20 11:08:56;;;;;;;2.75;1.33;;;22.00;99.90;;;;;;5086909;28;20036;-80
2021/06/20 11:11:26;;;;;;;3.63;1.50;;;22.00;99.90;;;;;;5083011;28;20040;-79
2021/06/20 11:13:55;;;;;;;4.05;1.90;;;21.90;99.90;;;;;;5063874;28;20119;-78
2021/06/20 11:16:25;;;;;;;3.28;1.42;;;22.10;99.90;;;;;;5094592;28;20397;-78
2021/06/20 11:19:09;;;;;;;2.95;1.70;;;22.20;99.90;;;;;;5093578;28;20032;-77
2021/06/20 11:21:38;;;;;;;2.78;1.63;;;22.00;99.90;;;;;;5094805;28;20152;-78
2021/06/20 11:24:05;;;;;;;4.60;1.75;;;21.90;99.90;;;;;;5080771;28;20040;-79
2021/06/20 11:26:30;;;;;;;3.90;1.90;;;21.90;99.90;;;;;;5092942;28;20036;-78
2021/06/20 11:29:02;;;;;;;6.15;1.80;;;21.80;99.90;;;;;;5093499;28;20165;-77
2021/06/20 11:31:29;;;;;;;4.20;1.80;;;21.60;99.90;;;;;;5063635;28;20044;-78
2021/06/20 11:33:56;;;;;;;3.60;1.80;;;21.40;99.90;;;;;;5093954;28;20061;-78
2021/06/20 11:36:25;;;;;;;4.63;1.88;;;21.40;99.90;;;;;;5093394;28;20040;-78
2021/06/20 11:38:50;;;;;;;2.97;1.77;;;21.50;99.90;;;;;;5075100;28;20469;-79
2021/06/20 11:41:23;;;;;;;4.40;2.03;;;21.40;99.90;;;;;;5075402;28;20043;-80
2021/06/20 11:44:03;;;;;;;4.10;1.80;;;21.40;99.90;;;;;;5094579;28;20036;-77
2021/06/20 11:46:31;;;;;;;5.45;2.00;;;21.30;99.90;;;;;;5093440;28;20124;-76
2021/06/20 11:49:03;;;;;;;5.70;2.03;;;21.30;99.90;;;;;;5092205;28;20036;-77
2021/06/20 11:51:38;;;;;;;3.65;1.77;;;21.10;99.90;;;;;;5093438;28;20119;-76
2021/06/20 11:54:11;;;;;;;3.38;1.88;;;20.80;99.90;;;;;;5093856;28;20044;-78
2021/06/20 11:56:39;;;;;;;4.90;1.92;;;20.60;99.90;;;;;;5069904;28;20042;-79
2021/06/20 11:59:06;;;;;;;4.57;2.15;;;20.30;99.90;;;;;;5074936;28;20035;-77
2021/06/20 12:01:44;;;;;;;5.82;2.15;;;20.20;99.90;;;;;;5076412;28;20431;-79
2021/06/20 12:04:11;;;;;;;5.68;2.70;;;20.30;99.90;;;;;;5090339;28;20039;-79
2021/06/20 12:06:38;;;;;;;3.13;1.70;;;20.60;99.90;;;;;;5092627;28;20044;-75
2021/06/20 12:09:06;;;;;;;5.18;2.50;;;20.80;99.90;;;;;;5093281;28;20054;-76
2021/06/20 12:11:33;;;;;;;5.10;2.20;;;20.90;99.90;;;;;;5092569;28;20059;-76
2021/06/20 12:13:59;;;;;;;6.97;2.47;;;20.90;99.90;;;;;;5092119;28;20133;-78
2021/06/20 12:16:25;;;;;;;9.80;2.25;;;20.80;99.90;;;;;;5094106;28;20080;-76
2021/06/20 12:18:52;;;;;;;5.60;2.40;;;20.60;99.90;;;;;;5093076;28;20091;-75
2021/06/20 12:21:26;;;;;;;7.75;2.42;;;20.80;99.90;;;;;;5093822;28;20036;-78
2021/06/20 12:23:59;;;;;;;6.43;2.25;;;20.60;99.90;;;;;;5093062;28;20040;-75
2021/06/20 12:26:32;;;;;;;3.58;1.77;;;20.40;99.90;;;;;;5088365;28;20392;-78
2021/06/20 12:28:59;;;;;;;4.75;1.90;;;20.20;99.90;;;;;;5093361;28;20085;-77
2021/06/20 12:31:25;;;;;;;6.57;2.28;;;20.00;99.90;;;;;;5093623;28;20032;-75
2021/06/20 12:34:08;;;;;;;5.75;2.47;;;19.80;99.90;;;;;;5093130;28;20047;-77
2021/06/20 12:36:34;;;;;;;5.20;2.35;;;19.70;99.90;;;;;;5074712;28;20051;-78
2021/06/20 12:39:01;;;;;;;6.32;2.03;;;19.50;99.90;;;;;;5092386;28;20046;-77
2021/06/20 12:41:29;;;;;;;7.20;2.25;;;19.40;99.90;;;;;;5091457;28;20039;-78
2021/06/20 12:43:58;;;;;;;5.38;2.25;;;19.40;99.90;;;;;;5083179;28;20044;-76
2021/06/20 12:46:35;;;;;;;9.73;2.80;;;19.20;99.90;;;;;;5093425;28;20044;-78
2021/06/20 12:49:11;;;;;;;7.72;3.03;;;19.20;99.90;;;;;;5093101;28;20070;-78
2021/06/20 12:51:43;;;;;;;7.93;2.47;;;19.20;99.90;;;;;;5089171;28;20032;-78
2021/06/20 12:54:11;;;;;;;7.13;2.85;;;19.20;99.90;;;;;;5074399;28;20043;-76
2021/06/20 12:56:38;;;;;;;7.35;2.95;;;19.20;99.90;;;;;;5074036;28;20431;-77
2021/06/20 12:59:06;;;;;;;7.13;2.80;;;19.30;99.90;;;;;;5092491;28;20028;-79